sensor_id;sensor_type;location;lat;lon;timestamp;P1;durP1;ratioP1;P2;durP2;ratioP2
68438;SDS011;55421;51.600;5.718;2022-08-19T00:01:53;25.70;;;20.50;;
68438;SDS011;55421;51.600;5.718;2022-08-19T00:04:24;23.70;;;20.60;;
68438;SDS011;55421;51.600;5.718;2022-08-19T00:06:54;23.30;;;20.30;;
68438;SDS011;55421;51.600;5.718;2022-08-19T00:09:22;24.50;;;20.40;;
68438;SDS011;55421;51.600;5.718;2022-08-19T00:11:50;28.30;;;22.30;;
68438;SDS011;55421;51.600;5.718;2022-08-19T00:14:18;26.30;;;22.20;;
68438;SDS011;55421;51.600;5.718;2022-08-19T00:16:47;22.10;;;18.70;;
68438;SDS011;55421;51.600;5.718;2022-08-19T00:19:16;21.20;;;18.90;;
68438;SDS011;55421;51.600;5.718;2022-08-19T00:21:42;23.20;;;18.70;;
68438;SDS011;55421;51.600;5.718;2022-08-19T00:24:11;24.20;;;19.00;;
68438;SDS011;55421;51.600;5.718;2022-08-19T00:29:09;21.60;;;18.20;;
68438;SDS011;55421;51.600;5.718;2022-08-19T00:31:37;20.90;;;18.40;;
68438;SDS011;55421;51.600;5.718;2022-08-19T00:34:04;20.00;;;16.70;;
68438;SDS011;55421;51.600;5.718;2022-08-19T00:36:31;21.00;;;17.60;;
68438;SDS011;55421;51.600;5.718;2022-08-19T00:39:00;20.60;;;17.10;;
68438;SDS011;55421;51.600;5.718;2022-08-19T00:41:27;18.90;;;16.70;;
68438;SDS011;55421;51.600;5.718;2022-08-19T00:44:15;19.60;;;17.50;;
68438;SDS011;55421;51.600;5.718;2022-08-19T00:46:47;23.80;;;19.90;;
68438;SDS011;55421;51.600;5.718;2022-08-19T00:49:19;24.90;;;20.50;;
68438;SDS011;55421;51.600;5.718;2022-08-19T00:51:54;25.30;;;21.60;;
68438;SDS011;55421;51.600;5.718;2022-08-19T00:54:23;23.60;;;20.30;;
68438;SDS011;55421;51.600;5.718;2022-08-19T00:56:50;24.10;;;19.20;;
68438;SDS011;55421;51.600;5.718;2022-08-19T00:59:18;24.60;;;20.70;;
68438;SDS011;55421;51.600;5.718;2022-08-19T01:01:46;23.60;;;19.50;;
68438;SDS011;55421;51.600;5.718;2022-08-19T01:04:13;21.30;;;18.40;;
68438;SDS011;55421;51.600;5.718;2022-08-19T01:06:41;24.00;;;20.30;;
68438;SDS011;55421;51.600;5.718;2022-08-19T01:09:08;25.20;;;20.80;;
68438;SDS011;55421;51.600;5.718;2022-08-19T01:11:39;25.90;;;21.90;;
68438;SDS011;55421;51.600;5.718;2022-08-19T01:14:10;23.00;;;20.30;;
68438;SDS011;55421;51.600;5.718;2022-08-19T01:16:37;23.80;;;20.00;;
68438;SDS011;55421;51.600;5.718;2022-08-19T01:19:17;25.60;;;19.90;;
68438;SDS011;55421;51.600;5.718;2022-08-19T01:21:55;23.80;;;19.10;;
68438;SDS011;55421;51.600;5.718;2022-08-19T01:24:28;21.10;;;18.50;;
68438;SDS011;55421;51.600;5.718;2022-08-19T01:26:56;21.20;;;18.90;;
68438;SDS011;55421;51.600;5.718;2022-08-19T01:29:24;24.50;;;19.60;;
68438;SDS011;55421;51.600;5.718;2022-08-19T01:31:50;23.70;;;20.20;;
68438;SDS011;55421;51.600;5.718;2022-08-19T01:34:19;21.30;;;18.50;;
68438;SDS011;55421;51.600;5.718;2022-08-19T01:36:47;26.80;;;19.00;;
68438;SDS011;55421;51.600;5.718;2022-08-19T01:39:18;27.20;;;19.70;;
68438;SDS011;55421;51.600;5.718;2022-08-19T01:41:48;22.90;;;18.60;;
68438;SDS011;55421;51.600;5.718;2022-08-19T01:44:16;48.90;;;18.70;;
68438;SDS011;55421;51.600;5.718;2022-08-19T01:46:47;22.60;;;19.30;;
68438;SDS011;55421;51.600;5.718;2022-08-19T01:49:17;22.90;;;20.30;;
68438;SDS011;55421;51.600;5.718;2022-08-19T01:51:46;25.20;;;19.00;;
68438;SDS011;55421;51.600;5.718;2022-08-19T01:54:15;23.10;;;17.90;;
68438;SDS011;55421;51.600;5.718;2022-08-19T01:56:43;23.90;;;18.60;;
68438;SDS011;55421;51.600;5.718;2022-08-19T01:59:13;21.20;;;17.50;;
68438;SDS011;55421;51.600;5.718;2022-08-19T02:01:42;22.30;;;18.60;;
68438;SDS011;55421;51.600;5.718;2022-08-19T02:04:09;23.00;;;17.70;;
68438;SDS011;55421;51.600;5.718;2022-08-19T02:06:36;19.90;;;17.40;;
68438;SDS011;55421;51.600;5.718;2022-08-19T02:09:05;21.10;;;17.70;;
68438;SDS011;55421;51.600;5.718;2022-08-19T02:11:34;22.50;;;19.10;;
68438;SDS011;55421;51.600;5.718;2022-08-19T02:14:04;22.20;;;18.70;;
68438;SDS011;55421;51.600;5.718;2022-08-19T02:16:32;22.90;;;19.20;;
68438;SDS011;55421;51.600;5.718;2022-08-19T02:18:59;22.00;;;18.90;;
68438;SDS011;55421;51.600;5.718;2022-08-19T02:21:28;24.80;;;20.10;;
68438;SDS011;55421;51.600;5.718;2022-08-19T02:23:56;23.40;;;18.70;;
68438;SDS011;55421;51.600;5.718;2022-08-19T02:26:23;24.60;;;18.60;;
68438;SDS011;55421;51.600;5.718;2022-08-19T02:28:49;21.20;;;18.30;;
68438;SDS011;55421;51.600;5.718;2022-08-19T02:31:19;22.50;;;18.90;;
68438;SDS011;55421;51.600;5.718;2022-08-19T02:36:16;26.80;;;20.70;;
68438;SDS011;55421;51.600;5.718;2022-08-19T02:38:44;24.20;;;19.60;;
68438;SDS011;55421;51.600;5.718;2022-08-19T02:41:14;25.40;;;19.90;;
68438;SDS011;55421;51.600;5.718;2022-08-19T02:43:44;23.90;;;18.90;;
68438;SDS011;55421;51.600;5.718;2022-08-19T02:46:22;21.00;;;18.00;;
68438;SDS011;55421;51.600;5.718;2022-08-19T02:48:53;24.20;;;19.70;;
68438;SDS011;55421;51.600;5.718;2022-08-19T02:53:55;23.00;;;19.40;;
68438;SDS011;55421;51.600;5.718;2022-08-19T02:56:23;26.40;;;20.60;;
68438;SDS011;55421;51.600;5.718;2022-08-19T02:58:50;23.60;;;19.40;;
68438;SDS011;55421;51.600;5.718;2022-08-19T03:01:26;21.30;;;18.40;;
68438;SDS011;55421;51.600;5.718;2022-08-19T03:03:55;21.10;;;18.30;;
68438;SDS011;55421;51.600;5.718;2022-08-19T03:06:23;22.80;;;16.80;;
68438;SDS011;55421;51.600;5.718;2022-08-19T03:08:50;21.40;;;18.20;;
68438;SDS011;55421;51.600;5.718;2022-08-19T03:11:23;21.30;;;17.60;;
68438;SDS011;55421;51.600;5.718;2022-08-19T03:13:52;19.60;;;17.30;;
68438;SDS011;55421;51.600;5.718;2022-08-19T03:16:23;19.40;;;17.00;;
68438;SDS011;55421;51.600;5.718;2022-08-19T03:18:53;20.60;;;17.70;;
68438;SDS011;55421;51.600;5.718;2022-08-19T03:21:23;21.40;;;17.50;;
68438;SDS011;55421;51.600;5.718;2022-08-19T03:23:55;22.20;;;18.20;;
68438;SDS011;55421;51.600;5.718;2022-08-19T03:26:23;24.70;;;18.40;;
68438;SDS011;55421;51.600;5.718;2022-08-19T03:28:50;20.70;;;16.70;;
68438;SDS011;55421;51.600;5.718;2022-08-19T03:31:21;22.90;;;19.30;;
68438;SDS011;55421;51.600;5.718;2022-08-19T03:33:51;21.60;;;17.80;;
68438;SDS011;55421;51.600;5.718;2022-08-19T03:36:21;21.20;;;17.70;;
68438;SDS011;55421;51.600;5.718;2022-08-19T03:38:52;22.10;;;17.70;;
68438;SDS011;55421;51.600;5.718;2022-08-19T03:41:24;18.70;;;16.50;;
68438;SDS011;55421;51.600;5.718;2022-08-19T03:43:57;19.70;;;16.20;;
68438;SDS011;55421;51.600;5.718;2022-08-19T03:46:30;20.50;;;16.10;;
68438;SDS011;55421;51.600;5.718;2022-08-19T03:49:00;22.70;;;18.20;;
68438;SDS011;55421;51.600;5.718;2022-08-19T03:51:35;21.20;;;18.20;;
68438;SDS011;55421;51.600;5.718;2022-08-19T03:54:09;20.00;;;17.20;;
68438;SDS011;55421;51.600;5.718;2022-08-19T03:56:39;23.50;;;17.80;;
68438;SDS011;55421;51.600;5.718;2022-08-19T03:59:10;27.70;;;18.10;;
68438;SDS011;55421;51.600;5.718;2022-08-19T04:01:41;20.90;;;16.90;;
68438;SDS011;55421;51.600;5.718;2022-08-19T04:04:08;20.70;;;16.60;;
68438;SDS011;55421;51.600;5.718;2022-08-19T04:06:36;22.00;;;16.70;;
68438;SDS011;55421;51.600;5.718;2022-08-19T04:09:09;20.60;;;17.40;;
68438;SDS011;55421;51.600;5.718;2022-08-19T04:11:41;23.80;;;18.70;;
68438;SDS011;55421;51.600;5.718;2022-08-19T04:14:15;25.80;;;18.00;;
68438;SDS011;55421;51.600;5.718;2022-08-19T04:16:45;20.30;;;17.10;;
68438;SDS011;55421;51.600;5.718;2022-08-19T04:19:15;24.20;;;19.00;;
68438;SDS011;55421;51.600;5.718;2022-08-19T04:21:44;21.00;;;17.60;;
68438;SDS011;55421;51.600;5.718;2022-08-19T04:24:13;21.90;;;16.90;;
68438;SDS011;55421;51.600;5.718;2022-08-19T04:26:40;20.90;;;15.40;;
68438;SDS011;55421;51.600;5.718;2022-08-19T04:29:13;19.30;;;16.70;;
68438;SDS011;55421;51.600;5.718;2022-08-19T04:31:43;21.70;;;16.50;;
68438;SDS011;55421;51.600;5.718;2022-08-19T04:34:14;25.10;;;18.40;;
68438;SDS011;55421;51.600;5.718;2022-08-19T04:36:42;21.60;;;17.50;;
68438;SDS011;55421;51.600;5.718;2022-08-19T04:39:17;21.70;;;17.40;;
68438;SDS011;55421;51.600;5.718;2022-08-19T04:41:47;22.30;;;17.20;;
68438;SDS011;55421;51.600;5.718;2022-08-19T04:44:34;23.80;;;16.20;;
68438;SDS011;55421;51.600;5.718;2022-08-19T04:47:02;21.60;;;16.90;;
68438;SDS011;55421;51.600;5.718;2022-08-19T04:49:31;27.00;;;19.30;;
68438;SDS011;55421;51.600;5.718;2022-08-19T04:51:57;24.40;;;18.70;;
68438;SDS011;55421;51.600;5.718;2022-08-19T04:54:24;25.20;;;19.30;;
68438;SDS011;55421;51.600;5.718;2022-08-19T04:56:52;24.20;;;18.20;;
68438;SDS011;55421;51.600;5.718;2022-08-19T04:59:20;23.30;;;17.90;;
68438;SDS011;55421;51.600;5.718;2022-08-19T05:01:47;22.60;;;16.80;;
68438;SDS011;55421;51.600;5.718;2022-08-19T05:04:18;21.90;;;16.50;;
68438;SDS011;55421;51.600;5.718;2022-08-19T05:06:47;22.80;;;18.40;;
68438;SDS011;55421;51.600;5.718;2022-08-19T05:09:15;21.80;;;17.60;;
68438;SDS011;55421;51.600;5.718;2022-08-19T05:11:43;25.70;;;18.80;;
68438;SDS011;55421;51.600;5.718;2022-08-19T05:14:11;31.70;;;20.30;;
68438;SDS011;55421;51.600;5.718;2022-08-19T05:16:39;27.20;;;18.80;;
68438;SDS011;55421;51.600;5.718;2022-08-19T05:19:06;27.40;;;18.10;;
68438;SDS011;55421;51.600;5.718;2022-08-19T05:21:52;27.10;;;18.20;;
68438;SDS011;55421;51.600;5.718;2022-08-19T05:24:37;28.50;;;21.00;;
68438;SDS011;55421;51.600;5.718;2022-08-19T05:27:03;29.30;;;21.00;;
68438;SDS011;55421;51.600;5.718;2022-08-19T05:29:33;33.10;;;21.10;;
68438;SDS011;55421;51.600;5.718;2022-08-19T05:32:02;30.50;;;21.80;;
68438;SDS011;55421;51.600;5.718;2022-08-19T05:34:31;28.70;;;20.90;;
68438;SDS011;55421;51.600;5.718;2022-08-19T05:36:59;28.50;;;21.10;;
68438;SDS011;55421;51.600;5.718;2022-08-19T05:39:29;31.00;;;20.80;;
68438;SDS011;55421;51.600;5.718;2022-08-19T05:42:01;34.70;;;23.30;;
68438;SDS011;55421;51.600;5.718;2022-08-19T05:44:36;35.60;;;25.20;;
68438;SDS011;55421;51.600;5.718;2022-08-19T05:47:06;35.70;;;26.20;;
68438;SDS011;55421;51.600;5.718;2022-08-19T05:49:36;39.40;;;27.30;;
68438;SDS011;55421;51.600;5.718;2022-08-19T05:52:05;40.30;;;26.00;;
68438;SDS011;55421;51.600;5.718;2022-08-19T05:54:37;38.10;;;25.10;;
68438;SDS011;55421;51.600;5.718;2022-08-19T05:57:06;34.80;;;25.00;;
68438;SDS011;55421;51.600;5.718;2022-08-19T05:59:34;39.90;;;26.50;;
68438;SDS011;55421;51.600;5.718;2022-08-19T06:02:03;41.10;;;28.00;;
68438;SDS011;55421;51.600;5.718;2022-08-19T06:04:31;43.40;;;28.80;;
68438;SDS011;55421;51.600;5.718;2022-08-19T06:06:57;45.30;;;29.60;;
68438;SDS011;55421;51.600;5.718;2022-08-19T06:09:24;41.00;;;27.10;;
68438;SDS011;55421;51.600;5.718;2022-08-19T06:11:53;44.00;;;27.90;;
68438;SDS011;55421;51.600;5.718;2022-08-19T06:14:27;39.80;;;27.20;;
68438;SDS011;55421;51.600;5.718;2022-08-19T06:16:57;42.20;;;27.00;;
68438;SDS011;55421;51.600;5.718;2022-08-19T06:19:25;46.60;;;29.40;;
68438;SDS011;55421;51.600;5.718;2022-08-19T06:21:52;43.40;;;28.40;;
68438;SDS011;55421;51.600;5.718;2022-08-19T06:24:22;55.50;;;31.70;;
68438;SDS011;55421;51.600;5.718;2022-08-19T06:26:51;45.10;;;29.20;;
68438;SDS011;55421;51.600;5.718;2022-08-19T06:29:22;44.10;;;28.60;;
68438;SDS011;55421;51.600;5.718;2022-08-19T06:31:52;46.00;;;29.20;;
68438;SDS011;55421;51.600;5.718;2022-08-19T06:34:20;45.80;;;29.70;;
68438;SDS011;55421;51.600;5.718;2022-08-19T06:36:48;45.20;;;29.50;;
68438;SDS011;55421;51.600;5.718;2022-08-19T06:39:22;46.60;;;30.40;;
68438;SDS011;55421;51.600;5.718;2022-08-19T06:41:54;46.90;;;30.90;;
68438;SDS011;55421;51.600;5.718;2022-08-19T06:44:25;47.20;;;29.40;;
68438;SDS011;55421;51.600;5.718;2022-08-19T06:49:22;45.10;;;27.20;;
68438;SDS011;55421;51.600;5.718;2022-08-19T06:51:50;48.40;;;29.40;;
68438;SDS011;55421;51.600;5.718;2022-08-19T06:54:18;45.80;;;30.60;;
68438;SDS011;55421;51.600;5.718;2022-08-19T06:56:45;46.50;;;29.90;;
68438;SDS011;55421;51.600;5.718;2022-08-19T06:59:18;43.00;;;29.00;;
68438;SDS011;55421;51.600;5.718;2022-08-19T07:01:49;45.40;;;29.10;;
68438;SDS011;55421;51.600;5.718;2022-08-19T07:04:21;48.70;;;29.20;;
68438;SDS011;55421;51.600;5.718;2022-08-19T07:06:52;44.70;;;26.80;;
68438;SDS011;55421;51.600;5.718;2022-08-19T07:09:26;44.50;;;26.90;;
68438;SDS011;55421;51.600;5.718;2022-08-19T07:11:54;46.30;;;26.50;;
68438;SDS011;55421;51.600;5.718;2022-08-19T07:14:25;41.60;;;26.70;;
68438;SDS011;55421;51.600;5.718;2022-08-19T07:16:55;43.50;;;27.00;;
68438;SDS011;55421;51.600;5.718;2022-08-19T07:19:25;44.10;;;27.40;;
68438;SDS011;55421;51.600;5.718;2022-08-19T07:21:54;43.70;;;27.60;;
68438;SDS011;55421;51.600;5.718;2022-08-19T07:24:23;43.30;;;26.10;;
68438;SDS011;55421;51.600;5.718;2022-08-19T07:26:52;41.10;;;25.70;;
68438;SDS011;55421;51.600;5.718;2022-08-19T07:29:21;39.40;;;26.00;;
68438;SDS011;55421;51.600;5.718;2022-08-19T07:34:18;40.00;;;26.10;;
68438;SDS011;55421;51.600;5.718;2022-08-19T07:36:45;41.80;;;26.80;;
68438;SDS011;55421;51.600;5.718;2022-08-19T07:39:18;39.50;;;25.20;;
68438;SDS011;55421;51.600;5.718;2022-08-19T07:41:47;34.80;;;22.30;;
68438;SDS011;55421;51.600;5.718;2022-08-19T07:44:15;43.50;;;23.60;;
68438;SDS011;55421;51.600;5.718;2022-08-19T07:46:44;37.10;;;22.90;;
68438;SDS011;55421;51.600;5.718;2022-08-19T07:49:13;40.40;;;24.10;;
68438;SDS011;55421;51.600;5.718;2022-08-19T07:51:54;38.70;;;25.00;;
68438;SDS011;55421;51.600;5.718;2022-08-19T07:54:25;40.20;;;23.70;;
68438;SDS011;55421;51.600;5.718;2022-08-19T07:56:53;39.80;;;23.90;;
68438;SDS011;55421;51.600;5.718;2022-08-19T07:59:21;36.50;;;22.80;;
68438;SDS011;55421;51.600;5.718;2022-08-19T08:01:49;41.20;;;23.90;;
68438;SDS011;55421;51.600;5.718;2022-08-19T08:04:18;39.30;;;23.40;;
68438;SDS011;55421;51.600;5.718;2022-08-19T08:07:05;36.00;;;22.80;;
68438;SDS011;55421;51.600;5.718;2022-08-19T08:09:52;30.40;;;20.50;;
68438;SDS011;55421;51.600;5.718;2022-08-19T08:12:24;32.50;;;20.20;;
68438;SDS011;55421;51.600;5.718;2022-08-19T08:14:57;30.40;;;20.50;;
68438;SDS011;55421;51.600;5.718;2022-08-19T08:17:31;33.60;;;21.10;;
68438;SDS011;55421;51.600;5.718;2022-08-19T08:19:58;29.90;;;19.70;;
68438;SDS011;55421;51.600;5.718;2022-08-19T08:22:25;30.70;;;20.40;;
68438;SDS011;55421;51.600;5.718;2022-08-19T08:25:17;30.20;;;20.40;;
68438;SDS011;55421;51.600;5.718;2022-08-19T08:27:46;31.20;;;19.70;;
68438;SDS011;55421;51.600;5.718;2022-08-19T08:30:22;30.90;;;20.90;;
68438;SDS011;55421;51.600;5.718;2022-08-19T08:32:51;29.20;;;19.90;;
68438;SDS011;55421;51.600;5.718;2022-08-19T08:35:20;25.50;;;19.20;;
68438;SDS011;55421;51.600;5.718;2022-08-19T08:37:52;27.70;;;18.70;;
68438;SDS011;55421;51.600;5.718;2022-08-19T08:43:31;26.90;;;17.60;;
68438;SDS011;55421;51.600;5.718;2022-08-19T08:46:04;28.90;;;19.70;;
68438;SDS011;55421;51.600;5.718;2022-08-19T08:48:41;29.00;;;18.80;;
68438;SDS011;55421;51.600;5.718;2022-08-19T08:51:18;26.80;;;17.20;;
68438;SDS011;55421;51.600;5.718;2022-08-19T08:53:51;24.30;;;16.70;;
68438;SDS011;55421;51.600;5.718;2022-08-19T08:56:19;22.00;;;17.90;;
68438;SDS011;55421;51.600;5.718;2022-08-19T08:59:05;28.80;;;19.70;;
68438;SDS011;55421;51.600;5.718;2022-08-19T09:01:36;24.40;;;16.90;;
68438;SDS011;55421;51.600;5.718;2022-08-19T09:04:05;23.70;;;17.70;;
68438;SDS011;55421;51.600;5.718;2022-08-19T09:06:40;26.80;;;19.00;;
68438;SDS011;55421;51.600;5.718;2022-08-19T09:12:10;23.30;;;16.70;;
68438;SDS011;55421;51.600;5.718;2022-08-19T09:15:02;23.80;;;16.30;;
68438;SDS011;55421;51.600;5.718;2022-08-19T09:20:04;24.70;;;18.90;;
68438;SDS011;55421;51.600;5.718;2022-08-19T09:22:41;28.20;;;19.60;;
68438;SDS011;55421;51.600;5.718;2022-08-19T09:25:16;29.30;;;20.90;;
68438;SDS011;55421;51.600;5.718;2022-08-19T09:27:44;29.70;;;22.90;;
68438;SDS011;55421;51.600;5.718;2022-08-19T09:30:15;31.30;;;22.90;;
68438;SDS011;55421;51.600;5.718;2022-08-19T09:32:46;39.10;;;25.20;;
68438;SDS011;55421;51.600;5.718;2022-08-19T09:35:13;35.60;;;25.20;;
68438;SDS011;55421;51.600;5.718;2022-08-19T09:37:41;29.40;;;21.60;;
68438;SDS011;55421;51.600;5.718;2022-08-19T09:40:10;37.30;;;25.90;;
68438;SDS011;55421;51.600;5.718;2022-08-19T09:42:37;31.70;;;23.50;;
68438;SDS011;55421;51.600;5.718;2022-08-19T09:45:04;32.60;;;24.70;;
68438;SDS011;55421;51.600;5.718;2022-08-19T09:47:31;29.00;;;21.10;;
68438;SDS011;55421;51.600;5.718;2022-08-19T09:50:06;27.90;;;21.00;;
68438;SDS011;55421;51.600;5.718;2022-08-19T09:55:07;30.70;;;22.60;;
68438;SDS011;55421;51.600;5.718;2022-08-19T09:57:36;27.10;;;20.20;;
68438;SDS011;55421;51.600;5.718;2022-08-19T10:00:06;29.00;;;21.40;;
68438;SDS011;55421;51.600;5.718;2022-08-19T10:02:34;27.90;;;22.40;;
68438;SDS011;55421;51.600;5.718;2022-08-19T10:05:01;25.10;;;19.50;;
68438;SDS011;55421;51.600;5.718;2022-08-19T10:07:47;21.10;;;17.40;;
68438;SDS011;55421;51.600;5.718;2022-08-19T10:10:14;23.10;;;17.50;;
68438;SDS011;55421;51.600;5.718;2022-08-19T10:12:41;25.00;;;18.80;;
68438;SDS011;55421;51.600;5.718;2022-08-19T10:15:12;26.90;;;18.70;;
68438;SDS011;55421;51.600;5.718;2022-08-19T10:17:39;24.40;;;18.70;;
68438;SDS011;55421;51.600;5.718;2022-08-19T10:20:05;24.50;;;18.50;;
68438;SDS011;55421;51.600;5.718;2022-08-19T10:22:32;27.80;;;19.10;;
68438;SDS011;55421;51.600;5.718;2022-08-19T10:25:01;23.00;;;18.40;;
68438;SDS011;55421;51.600;5.718;2022-08-19T10:27:28;28.40;;;19.80;;
68438;SDS011;55421;51.600;5.718;2022-08-19T10:29:54;29.70;;;19.80;;
68438;SDS011;55421;51.600;5.718;2022-08-19T10:32:21;29.40;;;21.60;;
68438;SDS011;55421;51.600;5.718;2022-08-19T10:34:47;24.70;;;20.10;;
68438;SDS011;55421;51.600;5.718;2022-08-19T10:37:16;25.10;;;19.60;;
68438;SDS011;55421;51.600;5.718;2022-08-19T10:39:45;32.20;;;20.90;;
68438;SDS011;55421;51.600;5.718;2022-08-19T10:42:13;27.00;;;19.30;;
68438;SDS011;55421;51.600;5.718;2022-08-19T10:44:42;33.20;;;21.50;;
68438;SDS011;55421;51.600;5.718;2022-08-19T10:47:10;26.00;;;18.90;;
68438;SDS011;55421;51.600;5.718;2022-08-19T10:49:37;31.70;;;20.90;;
68438;SDS011;55421;51.600;5.718;2022-08-19T10:52:23;26.10;;;19.40;;
68438;SDS011;55421;51.600;5.718;2022-08-19T10:55:04;29.40;;;19.70;;
68438;SDS011;55421;51.600;5.718;2022-08-19T10:57:52;27.90;;;18.40;;
68438;SDS011;55421;51.600;5.718;2022-08-19T11:00:20;27.30;;;19.70;;
68438;SDS011;55421;51.600;5.718;2022-08-19T11:02:49;23.50;;;17.70;;
68438;SDS011;55421;51.600;5.718;2022-08-19T11:05:16;25.40;;;17.90;;
68438;SDS011;55421;51.600;5.718;2022-08-19T11:07:44;26.70;;;19.50;;
68438;SDS011;55421;51.600;5.718;2022-08-19T11:10:13;30.20;;;21.60;;
68438;SDS011;55421;51.600;5.718;2022-08-19T11:12:41;25.20;;;19.30;;
68438;SDS011;55421;51.600;5.718;2022-08-19T11:15:08;31.00;;;21.60;;
68438;SDS011;55421;51.600;5.718;2022-08-19T11:17:38;26.90;;;20.10;;
68438;SDS011;55421;51.600;5.718;2022-08-19T11:20:11;24.10;;;18.10;;
68438;SDS011;55421;51.600;5.718;2022-08-19T11:22:39;24.10;;;17.90;;
68438;SDS011;55421;51.600;5.718;2022-08-19T11:25:07;23.90;;;17.40;;
68438;SDS011;55421;51.600;5.718;2022-08-19T11:27:38;26.00;;;17.60;;
68438;SDS011;55421;51.600;5.718;2022-08-19T11:30:10;29.00;;;19.90;;
68438;SDS011;55421;51.600;5.718;2022-08-19T11:32:42;12.60;;;10.30;;
68438;SDS011;55421;51.600;5.718;2022-08-19T11:35:08;24.80;;;18.80;;
68438;SDS011;55421;51.600;5.718;2022-08-19T11:37:36;28.40;;;19.90;;
68438;SDS011;55421;51.600;5.718;2022-08-19T11:40:05;30.50;;;19.70;;
68438;SDS011;55421;51.600;5.718;2022-08-19T11:42:32;28.10;;;19.30;;
68438;SDS011;55421;51.600;5.718;2022-08-19T11:45:18;25.20;;;18.70;;
68438;SDS011;55421;51.600;5.718;2022-08-19T11:47:44;30.20;;;19.50;;
68438;SDS011;55421;51.600;5.718;2022-08-19T11:50:12;26.30;;;18.50;;
68438;SDS011;55421;51.600;5.718;2022-08-19T11:52:38;21.60;;;16.70;;
68438;SDS011;55421;51.600;5.718;2022-08-19T11:55:05;22.00;;;17.00;;
68438;SDS011;55421;51.600;5.718;2022-08-19T11:57:32;13.80;;;10.90;;
68438;SDS011;55421;51.600;5.718;2022-08-19T11:59:59;28.00;;;18.30;;
68438;SDS011;55421;51.600;5.718;2022-08-19T12:02:25;25.50;;;18.10;;
68438;SDS011;55421;51.600;5.718;2022-08-19T12:04:51;24.60;;;16.10;;
68438;SDS011;55421;51.600;5.718;2022-08-19T12:07:18;20.40;;;16.40;;
68438;SDS011;55421;51.600;5.718;2022-08-19T12:09:44;23.20;;;18.10;;
68438;SDS011;55421;51.600;5.718;2022-08-19T12:12:11;27.10;;;18.40;;
68438;SDS011;55421;51.600;5.718;2022-08-19T12:14:37;26.40;;;18.70;;
68438;SDS011;55421;51.600;5.718;2022-08-19T12:17:04;20.80;;;14.60;;
68438;SDS011;55421;51.600;5.718;2022-08-19T12:19:33;16.90;;;13.00;;
68438;SDS011;55421;51.600;5.718;2022-08-19T12:22:00;15.10;;;11.30;;
68438;SDS011;55421;51.600;5.718;2022-08-19T12:24:32;11.20;;;8.80;;
68438;SDS011;55421;51.600;5.718;2022-08-19T12:26:58;15.30;;;9.80;;
68438;SDS011;55421;51.600;5.718;2022-08-19T12:29:27;20.00;;;15.40;;
68438;SDS011;55421;51.600;5.718;2022-08-19T12:31:58;20.80;;;15.40;;
68438;SDS011;55421;51.600;5.718;2022-08-19T12:34:29;25.10;;;16.40;;
68438;SDS011;55421;51.600;5.718;2022-08-19T12:37:02;27.00;;;19.20;;
68438;SDS011;55421;51.600;5.718;2022-08-19T12:39:36;21.90;;;16.40;;
68438;SDS011;55421;51.600;5.718;2022-08-19T12:42:09;21.10;;;16.20;;
68438;SDS011;55421;51.600;5.718;2022-08-19T12:44:39;25.20;;;15.80;;
68438;SDS011;55421;51.600;5.718;2022-08-19T12:47:10;23.00;;;16.80;;
68438;SDS011;55421;51.600;5.718;2022-08-19T12:49:38;24.60;;;17.00;;
68438;SDS011;55421;51.600;5.718;2022-08-19T12:52:07;22.40;;;16.30;;
68438;SDS011;55421;51.600;5.718;2022-08-19T12:54:35;19.90;;;15.50;;
68438;SDS011;55421;51.600;5.718;2022-08-19T12:57:07;19.00;;;14.60;;
68438;SDS011;55421;51.600;5.718;2022-08-19T12:59:37;18.80;;;12.50;;
68438;SDS011;55421;51.600;5.718;2022-08-19T13:02:06;16.10;;;12.20;;
68438;SDS011;55421;51.600;5.718;2022-08-19T13:04:34;17.60;;;13.10;;
68438;SDS011;55421;51.600;5.718;2022-08-19T13:07:02;17.80;;;12.00;;
68438;SDS011;55421;51.600;5.718;2022-08-19T13:09:29;13.20;;;10.80;;
68438;SDS011;55421;51.600;5.718;2022-08-19T13:11:56;18.60;;;12.20;;
68438;SDS011;55421;51.600;5.718;2022-08-19T13:14:22;16.80;;;12.90;;
68438;SDS011;55421;51.600;5.718;2022-08-19T13:16:49;18.30;;;13.60;;
68438;SDS011;55421;51.600;5.718;2022-08-19T13:19:15;16.70;;;12.20;;
68438;SDS011;55421;51.600;5.718;2022-08-19T13:21:42;14.30;;;11.10;;
68438;SDS011;55421;51.600;5.718;2022-08-19T13:24:08;18.10;;;12.60;;
68438;SDS011;55421;51.600;5.718;2022-08-19T13:26:35;13.60;;;11.00;;
68438;SDS011;55421;51.600;5.718;2022-08-19T13:29:01;16.00;;;12.10;;
68438;SDS011;55421;51.600;5.718;2022-08-19T13:31:46;14.90;;;11.90;;
68438;SDS011;55421;51.600;5.718;2022-08-19T13:34:33;20.00;;;12.80;;
68438;SDS011;55421;51.600;5.718;2022-08-19T13:37:03;16.20;;;11.60;;
68438;SDS011;55421;51.600;5.718;2022-08-19T13:39:36;22.40;;;14.70;;
68438;SDS011;55421;51.600;5.718;2022-08-19T13:42:03;17.50;;;14.00;;
68438;SDS011;55421;51.600;5.718;2022-08-19T13:44:30;21.10;;;15.20;;
68438;SDS011;55421;51.600;5.718;2022-08-19T13:47:02;20.50;;;15.50;;
68438;SDS011;55421;51.600;5.718;2022-08-19T13:49:34;18.40;;;14.20;;
68438;SDS011;55421;51.600;5.718;2022-08-19T13:52:04;24.50;;;15.30;;
68438;SDS011;55421;51.600;5.718;2022-08-19T13:54:31;20.80;;;14.80;;
68438;SDS011;55421;51.600;5.718;2022-08-19T13:56:58;22.20;;;15.40;;
68438;SDS011;55421;51.600;5.718;2022-08-19T13:59:24;23.00;;;15.90;;
68438;SDS011;55421;51.600;5.718;2022-08-19T14:01:51;20.60;;;15.00;;
68438;SDS011;55421;51.600;5.718;2022-08-19T14:04:17;20.90;;;15.70;;
68438;SDS011;55421;51.600;5.718;2022-08-19T14:06:44;24.50;;;17.10;;
68438;SDS011;55421;51.600;5.718;2022-08-19T14:09:10;21.10;;;15.80;;
68438;SDS011;55421;51.600;5.718;2022-08-19T14:11:36;25.60;;;16.60;;
68438;SDS011;55421;51.600;5.718;2022-08-19T14:14:04;25.50;;;16.90;;
68438;SDS011;55421;51.600;5.718;2022-08-19T14:16:30;25.30;;;17.50;;
68438;SDS011;55421;51.600;5.718;2022-08-19T14:18:57;24.00;;;16.20;;
68438;SDS011;55421;51.600;5.718;2022-08-19T14:21:24;23.40;;;16.30;;
68438;SDS011;55421;51.600;5.718;2022-08-19T14:23:52;25.50;;;16.60;;
68438;SDS011;55421;51.600;5.718;2022-08-19T14:26:20;21.40;;;15.20;;
68438;SDS011;55421;51.600;5.718;2022-08-19T14:28:49;21.20;;;14.10;;
68438;SDS011;55421;51.600;5.718;2022-08-19T14:31:17;19.20;;;14.00;;
68438;SDS011;55421;51.600;5.718;2022-08-19T14:33:46;15.70;;;11.30;;
68438;SDS011;55421;51.600;5.718;2022-08-19T14:36:13;14.70;;;10.80;;
68438;SDS011;55421;51.600;5.718;2022-08-19T14:38:40;15.40;;;11.90;;
68438;SDS011;55421;51.600;5.718;2022-08-19T14:41:11;17.40;;;12.50;;
68438;SDS011;55421;51.600;5.718;2022-08-19T14:43:38;17.50;;;11.90;;
68438;SDS011;55421;51.600;5.718;2022-08-19T14:46:05;14.70;;;10.90;;
68438;SDS011;55421;51.600;5.718;2022-08-19T14:48:34;17.90;;;12.00;;
68438;SDS011;55421;51.600;5.718;2022-08-19T14:51:02;13.00;;;10.30;;
68438;SDS011;55421;51.600;5.718;2022-08-19T14:53:28;20.40;;;11.60;;
68438;SDS011;55421;51.600;5.718;2022-08-19T14:55:55;17.40;;;11.20;;
68438;SDS011;55421;51.600;5.718;2022-08-19T14:58:21;15.00;;;11.10;;
68438;SDS011;55421;51.600;5.718;2022-08-19T15:00:48;13.20;;;9.80;;